Time,TemperatureF,DewpointF,PressureIn,WindDirection,WindDirectionDegrees,WindSpeedMPH,WindSpeedGustMPH,Humidity,HourlyPrecipIn,Conditions,Clouds,dailyrainin,SoftwareType,DateUTC
2013-03-16 00:12:00,39.0,26.7,29.70,NNW,337,3.2,-999.0,61,-99.99,,,0.00,Acu-Link.com,2013-03-16 04:12:00,
2013-03-16 00:27:00,38.5,26.6,29.70,West,270,2.7,-999.0,62,-99.99,,,0.00,Acu-Link.com,2013-03-16 04:27:00,
2013-03-16 00:42:00,37.9,26.4,29.71,NW,315,1.7,-999.0,63,-99.99,,,0.00,Acu-Link.com,2013-03-16 04:42:00,
2013-03-16 00:57:00,37.8,26.4,29.70,NW,315,1.7,-999.0,63,-99.99,,,0.00,Acu-Link.com,2013-03-16 04:57:00,
2013-03-16 01:13:00,36.7,25.7,29.70,West,270,1.7,-999.0,64,-99.99,,,0.00,Acu-Link.com,2013-03-16 05:13:00,
2013-03-16 01:28:00,35.4,25.2,29.69,WNW,292,2.2,-999.0,66,-99.99,,,0.00,Acu-Link.com,2013-03-16 05:28:00,
2013-03-16 01:43:00,34.3,24.9,29.70,East,90,4.2,-999.0,68,-99.99,,,0.00,Acu-Link.com,2013-03-16 05:43:00,
2013-03-16 01:58:00,34.9,24.3,29.71,NNE,22,2.7,-999.0,65,-99.99,,,0.00,Acu-Link.com,2013-03-16 05:58:00,
2013-03-16 02:14:00,35.2,23.1,29.70,NW,315,2.7,-999.0,61,-99.99,,,0.00,Acu-Link.com,2013-03-16 06:14:00,
2013-03-16 02:29:00,35.2,22.3,29.70,NW,315,3.2,-999.0,59,-99.99,,,0.00,Acu-Link.com,2013-03-16 06:29:00,
2013-03-16 02:44:00,34.9,21.6,29.69,North,0,2.7,-999.0,58,-99.99,,,0.00,Acu-Link.com,2013-03-16 06:44:00,
2013-03-16 02:59:00,34.2,21.8,29.70,ESE,112,2.2,-999.0,60,-99.99,,,0.00,Acu-Link.com,2013-03-16 06:59:00,
2013-03-16 03:14:00,34.3,21.9,29.69,ESE,112,3.7,-999.0,60,-99.99,,,0.00,Acu-Link.com,2013-03-16 07:14:00,
2013-03-16 03:30:00,34.2,21.8,29.70,NNE,22,1.1,-999.0,60,-99.99,,,0.00,Acu-Link.com,2013-03-16 07:30:00,
2013-03-16 03:45:00,33.6,21.6,29.69,ENE,67,2.2,-999.0,61,-99.99,,,0.00,Acu-Link.com,2013-03-16 07:45:00,
2013-03-16 04:00:00,32.9,21.3,29.69,East,90,1.7,-999.0,62,-99.99,,,0.00,Acu-Link.com,2013-03-16 08:00:00,
2013-03-16 04:16:00,32.5,21.3,29.69,North,0,0.0,-999.0,63,-99.99,,,0.00,Acu-Link.com,2013-03-16 08:16:00,
2013-03-16 04:46:00,31.8,21.4,29.69,ESE,112,0.0,-999.0,65,-99.99,,,0.00,Acu-Link.com,2013-03-16 08:46:00,
2013-03-16 05:01:00,30.7,22.1,29.68,South,180,0.0,-999.0,70,-99.99,,,0.00,Acu-Link.com,2013-03-16 09:01:00,
2013-03-16 05:17:00,29.7,22.1,29.70,SSW,202,0.0,-999.0,73,-99.99,,,0.00,Acu-Link.com,2013-03-16 09:17:00,
2013-03-16 05:32:00,28.4,22.4,29.69,SSE,157,0.0,-999.0,78,-99.99,,,0.00,Acu-Link.com,2013-03-16 09:32:00,
2013-03-16 05:47:00,27.3,21.4,29.69,ESE,112,0.0,-999.0,78,-99.99,,,0.00,Acu-Link.com,2013-03-16 09:47:00,
2013-03-16 06:03:00,26.6,21.6,29.69,South,180,0.0,-999.0,81,-99.99,,,0.00,Acu-Link.com,2013-03-16 10:03:00,
2013-03-16 06:18:00,26.6,21.9,29.69,ESE,112,0.0,-999.0,82,-99.99,,,0.00,Acu-Link.com,2013-03-16 10:18:00,
2013-03-16 06:33:00,27.5,22.7,29.70,South,180,0.0,-999.0,82,-99.99,,,0.00,Acu-Link.com,2013-03-16 10:33:00,
2013-03-16 06:48:00,27.9,23.1,29.70,South,180,0.0,-999.0,82,-99.99,,,0.00,Acu-Link.com,2013-03-16 10:48:00,
2013-03-16 07:03:00,28.0,23.2,29.71,WSW,247,0.0,-999.0,82,-99.99,,,0.00,Acu-Link.com,2013-03-16 11:03:00,
2013-03-16 07:19:00,29.3,23.3,29.72,ESE,112,0.0,-999.0,78,-99.99,,,0.00,Acu-Link.com,2013-03-16 11:19:00,
2013-03-16 07:34:00,29.7,24.0,29.72,ESE,112,1.1,-999.0,79,-99.99,,,0.00,Acu-Link.com,2013-03-16 11:34:00,
2013-03-16 07:49:00,30.2,22.9,29.71,ESE,112,1.7,-999.0,74,-99.99,,,0.00,Acu-Link.com,2013-03-16 11:49:00,
2013-03-16 08:05:00,31.3,22.7,29.71,SSE,157,0.0,-999.0,70,-99.99,,,0.00,Acu-Link.com,2013-03-16 12:05:00,
2013-03-16 08:20:00,32.0,22.7,29.71,East,90,2.2,-999.0,68,-99.99,,,0.00,Acu-Link.com,2013-03-16 12:20:00,
2013-03-16 08:35:00,32.4,22.3,29.73,ESE,112,3.2,-999.0,66,-99.99,,,0.00,Acu-Link.com,2013-03-16 12:35:00,
2013-03-16 08:51:00,32.7,22.3,29.71,South,180,2.7,-999.0,65,-99.99,,,0.00,Acu-Link.com,2013-03-16 12:51:00,
2013-03-16 09:37:00,33.8,22.2,29.72,East,90,2.7,-999.0,62,-99.99,,,0.00,Acu-Link.com,2013-03-16 13:37:00,
2013-03-16 09:52:00,33.8,22.6,29.72,ESE,112,5.3,-999.0,63,-99.99,,,0.00,Acu-Link.com,2013-03-16 13:52:00,
2013-03-16 10:22:00,34.9,23.2,29.69,WSW,247,0.0,-999.0,62,-99.99,,,0.00,Acu-Link.com,2013-03-16 14:22:00,
2013-03-16 10:38:00,36.3,23.8,29.69,ENE,67,1.7,-999.0,60,-99.99,,,0.00,Acu-Link.com,2013-03-16 14:38:00,
2013-03-16 10:53:00,34.7,23.8,29.70,East,90,2.2,-999.0,64,-99.99,,,0.00,Acu-Link.com,2013-03-16 14:53:00,
2013-03-16 11:08:00,34.9,24.0,29.69,SW,225,2.2,-999.0,64,-99.99,,,0.00,Acu-Link.com,2013-03-16 15:08:00,
2013-03-16 11:24:00,33.8,24.0,29.69,SSW,202,2.2,-999.0,67,-99.99,,,0.00,Acu-Link.com,2013-03-16 15:24:00,
2013-03-16 11:39:00,32.5,26.7,29.68,NE,45,2.7,-999.0,79,-99.99,,,0.00,Acu-Link.com,2013-03-16 15:39:00,
2013-03-16 12:01:00,31.8,27.8,29.69,South,180,1.1,-999.0,85,-99.99,,,0.00,Acu-Link.com,2013-03-16 16:01:00,
2013-03-16 13:06:00,33.4,28.8,29.69,ESE,112,1.7,-999.0,83,-99.99,,,0.00,Acu-Link.com,2013-03-16 17:06:00,
2013-03-16 13:21:00,34.2,29.3,29.68,South,180,1.7,-999.0,82,-99.99,,,0.00,Acu-Link.com,2013-03-16 17:21:00,
2013-03-16 13:36:00,33.8,29.8,29.67,East,90,2.2,-999.0,85,-99.99,,,0.00,Acu-Link.com,2013-03-16 17:36:00,
2013-03-16 13:52:00,33.8,28.9,29.68,NE,45,0.0,-999.0,82,-99.99,,,0.00,Acu-Link.com,2013-03-16 17:52:00,
2013-03-16 14:13:00,32.7,28.7,29.66,ESE,112,2.7,-999.0,85,-99.99,,,0.00,Acu-Link.com,2013-03-16 18:13:00,
2013-03-16 14:28:00,33.4,29.4,29.66,ESE,112,2.2,-999.0,85,-99.99,,,0.00,Acu-Link.com,2013-03-16 18:28:00,
2013-03-16 14:43:00,33.6,28.7,29.64,East,90,3.2,-999.0,82,-99.99,,,0.00,Acu-Link.com,2013-03-16 18:43:00,
2013-03-16 14:58:00,33.4,28.8,29.65,ESE,112,1.7,-999.0,83,-99.99,,,0.00,Acu-Link.com,2013-03-16 18:58:00,
2013-03-16 15:14:00,32.9,28.6,29.63,SE,135,0.0,-999.0,84,-99.99,,,0.00,Acu-Link.com,2013-03-16 19:14:00,
2013-03-16 15:29:00,33.8,29.2,29.63,WNW,292,1.7,-999.0,83,-99.99,,,0.00,Acu-Link.com,2013-03-16 19:29:00,
2013-03-16 15:46:00,34.2,29.3,29.63,South,180,0.0,-999.0,82,-99.99,,,0.00,Acu-Link.com,2013-03-16 19:46:00,
2013-03-16 16:01:00,34.5,29.6,29.64,NE,45,2.7,-999.0,82,-99.99,,,0.00,Acu-Link.com,2013-03-16 20:01:00,
2013-03-16 16:17:00,34.0,29.7,29.65,ESE,112,2.2,-999.0,84,-99.99,,,0.00,Acu-Link.com,2013-03-16 20:17:00,
2013-03-16 16:33:00,34.2,29.6,29.65,SSE,157,0.0,-999.0,83,-99.99,,,0.00,Acu-Link.com,2013-03-16 20:33:00,
2013-03-16 16:48:00,34.3,29.4,29.66,East,90,2.2,-999.0,82,-99.99,,,0.00,Acu-Link.com,2013-03-16 20:48:00,
2013-03-16 17:04:00,34.5,29.6,29.66,ESE,112,0.0,-999.0,82,-99.99,,,0.00,Acu-Link.com,2013-03-16 21:04:00,
2013-03-16 17:19:00,34.2,29.9,29.68,East,90,0.0,-999.0,84,-99.99,,,0.00,Acu-Link.com,2013-03-16 21:19:00,
2013-03-16 17:34:00,33.6,29.6,29.67,NE,45,1.7,-999.0,85,-99.99,,,0.00,Acu-Link.com,2013-03-16 21:34:00,
2013-03-16 17:49:00,32.7,29.3,29.70,NW,315,0.0,-999.0,87,-99.99,,,0.00,Acu-Link.com,2013-03-16 21:49:00,
2013-03-16 18:05:00,32.9,29.5,29.68,NNE,22,0.0,-999.0,87,-99.99,,,0.00,Acu-Link.com,2013-03-16 22:05:00,
2013-03-16 18:32:00,32.5,29.3,29.69,North,0,1.7,-999.0,88,-99.99,,,0.00,Acu-Link.com,2013-03-16 22:32:00,
2013-03-16 18:47:00,31.6,28.7,29.70,NW,315,0.0,-999.0,89,-99.99,,,0.00,Acu-Link.com,2013-03-16 22:47:00,
2013-03-16 19:04:00,31.5,28.9,29.72,NNW,337,1.7,-999.0,90,-99.99,,,0.00,Acu-Link.com,2013-03-16 23:04:00,
2013-03-16 19:19:00,31.5,28.9,29.71,West,270,1.7,-999.0,90,-99.99,,,0.00,Acu-Link.com,2013-03-16 23:19:00,
2013-03-16 19:35:00,31.3,29.0,29.70,East,90,0.0,-999.0,91,-99.99,,,0.00,Acu-Link.com,2013-03-16 23:35:00,
2013-03-16 19:50:00,31.3,29.0,29.73,West,270,0.0,-999.0,91,-99.99,,,0.00,Acu-Link.com,2013-03-16 23:50:00,
2013-03-16 20:05:00,31.1,29.1,29.72,West,270,0.0,-999.0,92,-99.99,,,0.00,Acu-Link.com,2013-03-17 00:05:00,
2013-03-16 20:36:00,31.1,29.1,29.75,West,270,0.0,-999.0,92,-99.99,,,0.00,Acu-Link.com,2013-03-17 00:36:00,
2013-03-16 20:51:00,31.1,29.1,29.75,WNW,292,0.0,-999.0,92,-99.99,,,0.00,Acu-Link.com,2013-03-17 00:51:00,
2013-03-16 21:07:00,30.9,28.9,29.77,SW,225,0.0,-999.0,92,-99.99,,,0.00,Acu-Link.com,2013-03-17 01:07:00,
2013-03-16 21:22:00,30.9,29.1,29.77,West,270,0.0,-999.0,93,-99.99,,,0.00,Acu-Link.com,2013-03-17 01:22:00,
2013-03-16 21:37:00,30.7,28.9,29.77,WNW,292,0.0,-999.0,93,-99.99,,,0.00,Acu-Link.com,2013-03-17 01:37:00,
2013-03-16 21:53:00,30.7,28.9,29.78,WSW,247,0.0,-999.0,93,-99.99,,,0.00,Acu-Link.com,2013-03-17 01:53:00,
2013-03-16 22:08:00,30.7,28.9,29.79,NNE,22,1.7,-999.0,93,-99.99,,,0.00,Acu-Link.com,2013-03-17 02:08:00,
2013-03-16 22:24:00,30.7,28.9,29.80,West,270,0.0,-999.0,93,-99.99,,,0.00,Acu-Link.com,2013-03-17 02:24:00,
2013-03-16 22:39:00,30.7,29.2,29.81,NW,315,0.0,-999.0,94,-99.99,,,0.01,Acu-Link.com,2013-03-17 02:39:00,
2013-03-16 22:54:00,30.4,28.9,29.82,SSW,202,0.0,-999.0,94,-99.99,,,0.01,Acu-Link.com,2013-03-17 02:54:00,
2013-03-16 23:09:00,29.7,28.2,29.82,ENE,67,0.0,-999.0,94,-99.99,,,0.01,Acu-Link.com,2013-03-17 03:09:00,
2013-03-16 23:25:00,28.9,27.4,29.83,NNW,337,0.0,-999.0,94,-99.99,,,0.01,Acu-Link.com,2013-03-17 03:25:00,
2013-03-16 23:40:00,28.8,27.3,29.84,West,270,0.0,-999.0,94,-99.99,,,0.01,Acu-Link.com,2013-03-17 03:40:00,